Time;durP1;ratioP1;P1;durP2;ratioP2;P2;SDS_P1;SDS_P2;PMS_P1;PMS_P2;Temp;Humidity;BMP_temperature;BMP_pressure;BME280_temperature;BME280_humidity;BME280_pressure;Samples;Min_cycle;Max_cycle;Signal;HPM_P1;HPM_P2
2023/01/24 00:00:31;;;;;;;;;;;;;;;;;;4980211;28;19944;-89
2023/01/24 00:02:57;;;;;;;;;;;;;;;;;;4995984;28;20000;-89
2023/01/24 00:05:23;;;;;;;;;;;;;;;;;;4996189;28;19922;-89
2023/01/24 00:07:49;;;;;;;;;;;;;;;;;;4995947;28;19929;-90
2023/01/24 00:10:15;;;;;;;;;;;;;;;;;;4995884;28;19921;-90
2023/01/24 00:12:41;;;;;;;;;;;;;;;;;;4979572;28;19929;-89
2023/01/24 00:15:07;;;;;;;;;;;;;;;;;;4995963;28;19925;-90
2023/01/24 00:17:32;;;;;;;;;;;;;;;;;;4995813;28;19921;-90
2023/01/24 00:19:58;;;;;;;;;;;;;;;;;;4995889;28;20096;-90
2023/01/24 00:22:24;;;;;;;;;;;;;;;;;;4979355;28;19930;-90
2023/01/24 00:24:50;;;;;;;;;;;;;;;;;;4979575;28;20317;-89
2023/01/24 00:27:16;;;;;;;;;;;;;;;;;;4995702;28;19951;-90
2023/01/24 00:29:42;;;;;;;;;;;;;;;;;;4979437;28;19928;-90
2023/01/24 00:32:08;;;;;;;;;;;;;;;;;;4979409;28;20377;-89
2023/01/24 00:34:35;;;;;;;;;;;;;;;;;;4979318;28;19921;-89
2023/01/24 00:37:01;;;;;;;;;;;;;;;;;;4979451;28;19922;-90
2023/01/24 00:39:27;;;;;;;;;;;;;;;;;;4978784;28;19926;-90
2023/01/24 00:41:53;;;;;;;;;;;;;;;;;;4979262;28;20340;-90
2023/01/24 00:44:19;;;;;;;;;;;;;;;;;;4979204;28;20400;-89
2023/01/24 00:46:45;;;;;;;;;;;;;;;;;;4978956;28;20364;-90
2023/01/24 00:49:11;;;;;;;;;;;;;;;;;;4979909;28;19922;-90
2023/01/24 00:51:37;;;;;;;;;;;;;;;;;;4996204;28;19932;-91
2023/01/24 00:54:03;;;;;;;;;;;;;;;;;;4979735;28;19976;-90
2023/01/24 00:56:29;;;;;;;;;;;;;;;;;;4979093;28;19921;-90
2023/01/24 00:58:55;;;;;;;;;;;;;;;;;;4979207;28;20357;-90
2023/01/24 01:01:20;;;;;;;;;;;;;;;;;;4979327;28;20168;-90
2023/01/24 01:03:46;;;;;;;;;;;;;;;;;;4995245;28;20284;-90
2023/01/24 01:06:12;;;;;;;;;;;;;;;;;;4995812;28;19926;-89
2023/01/24 01:08:38;;;;;;;;;;;;;;;;;;4995220;28;19947;-90
2023/01/24 01:11:04;;;;;;;;;;;;;;;;;;4995046;28;20285;-90
2023/01/24 01:13:30;;;;;;;;;;;;;;;;;;4994847;28;20388;-90
2023/01/24 01:15:56;;;;;;;;;;;;;;;;;;4994801;28;19934;-90
2023/01/24 01:18:22;;;;;;;;;;;;;;;;;;4978725;28;19921;-90
2023/01/24 01:20:48;;;;;;;;;;;;;;;;;;4995305;28;19921;-90
2023/01/24 01:23:14;;;;;;;;;;;;;;;;;;4978846;28;19956;-89
2023/01/24 01:25:39;;;;;;;;;;;;;;;;;;4978832;28;19921;-90
2023/01/24 01:28:05;;;;;;;;;;;;;;;;;;4994605;28;19921;-90
2023/01/24 01:30:31;;;;;;;;;;;;;;;;;;4994625;28;19925;-90
2023/01/24 01:32:57;;;;;;;;;;;;;;;;;;4978441;28;19932;-90
2023/01/24 01:35:23;;;;;;;;;;;;;;;;;;4978721;28;20315;-89
2023/01/24 01:37:49;;;;;;;;;;;;;;;;;;4994674;28;19928;-90
2023/01/24 01:40:15;;;;;;;;;;;;;;;;;;4994712;28;19928;-90
2023/01/24 01:42:41;;;;;;;;;;;;;;;;;;4994647;28;19925;-90
2023/01/24 01:45:07;;;;;;;;;;;;;;;;;;4978312;28;19932;-90
2023/01/24 01:47:33;;;;;;;;;;;;;;;;;;4978693;28;19944;-90
2023/01/24 01:49:59;;;;;;;;;;;;;;;;;;4979390;28;20373;-90
2023/01/24 01:52:24;;;;;;;;;;;;;;;;;;4998744;28;19921;-89
2023/01/24 01:54:50;;;;;;;;;;;;;;;;;;4982379;28;19964;-90
2023/01/24 01:57:16;;;;;;;;;;;;;;;;;;4982325;28;20001;-89
2023/01/24 01:59:42;;;;;;;;;;;;;;;;;;4982517;28;19928;-91
2023/01/24 02:02:08;;;;;;;;;;;;;;;;;;4982635;28;20412;-90
2023/01/24 02:04:34;;;;;;;;;;;;;;;;;;4998577;28;20063;-90
2023/01/24 02:07:00;;;;;;;;;;;;;;;;;;4982165;28;19922;-89
2023/01/24 02:09:26;;;;;;;;;;;;;;;;;;4982171;28;19921;-90
2023/01/24 02:11:52;;;;;;;;;;;;;;;;;;4981939;28;19931;-90
2023/01/24 02:17:05;;;;;;;;;;;;;;;;;;5000847;28;19929;-96
2023/01/24 02:19:31;;;;;;;;;;;;;;;;;;4986130;28;19921;-90
2023/01/24 02:21:57;;;;;;;;;;;;;;;;;;4981707;28;19971;-91
2023/01/24 02:24:23;;;;;;;;;;;;;;;;;;4981829;28;20034;-90
2023/01/24 02:26:49;;;;;;;;;;;;;;;;;;4998161;28;19932;-90
2023/01/24 02:29:15;;;;;;;;;;;;;;;;;;4998168;28;19922;-91
2023/01/24 02:31:41;;;;;;;;;;;;;;;;;;4981908;28;20373;-91
2023/01/24 02:34:06;;;;;;;;;;;;;;;;;;4998110;28;19925;-91
2023/01/24 02:36:32;;;;;;;;;;;;;;;;;;4998003;28;20000;-91
2023/01/24 02:38:58;;;;;;;;;;;;;;;;;;4981726;28;20010;-91
2023/01/24 02:41:24;;;;;;;;;;;;;;;;;;4997929;28;20357;-91
2023/01/24 02:43:50;;;;;;;;;;;;;;;;;;4981849;28;20032;-91
2023/01/24 02:46:17;;;;;;;;;;;;;;;;;;4981953;28;20011;-91
2023/01/24 02:48:43;;;;;;;;;;;;;;;;;;4981494;28;19926;-92
2023/01/24 02:53:54;;;;;;;;;;;;;;;;;;4997363;28;20016;-90
2023/01/24 02:59:04;;;;;;;;;;;;;;;;;;4997413;28;20285;-91
2023/01/24 03:01:31;;;;;;;;;;;;;;;;;;4980613;28;19925;-90
2023/01/24 03:03:56;;;;;;;;;;;;;;;;;;4981087;28;19932;-90
2023/01/24 03:06:24;;;;;;;;;;;;;;;;;;4981107;28;19921;-90
2023/01/24 03:08:49;;;;;;;;;;;;;;;;;;4980920;28;20448;-90
2023/01/24 03:11:15;;;;;;;;;;;;;;;;;;4997130;28;20008;-90
2023/01/24 03:35:39;;;;;;;;;;;;;;;;;;4997095;28;20268;-91
2023/01/24 03:40:50;;;;;;;;;;;;;;;;;;4996835;28;20346;-90
2023/01/24 03:43:16;;;;;;;;;;;;;;;;;;4980564;28;19932;-91
2023/01/24 03:45:42;;;;;;;;;;;;;;;;;;4997184;28;19922;-91
2023/01/24 03:48:12;;;;;;;;;;;;;;;;;;4996343;28;19921;-90
2023/01/24 03:53:23;;;;;;;;;;;;;;;;;;4996643;28;19929;-91
2023/01/24 03:55:49;;;;;;;;;;;;;;;;;;4980362;28;20017;-91
2023/01/24 03:58:15;;;;;;;;;;;;;;;;;;4996055;28;19978;-92
2023/01/24 04:00:40;;;;;;;;;;;;;;;;;;4996222;28;19929;-91
2023/01/24 04:03:06;;;;;;;;;;;;;;;;;;4979897;28;19926;-91
2023/01/24 04:05:32;;;;;;;;;;;;;;;;;;4980229;28;19995;-91
2023/01/24 04:07:58;;;;;;;;;;;;;;;;;;4979687;28;20025;-90
2023/01/24 04:10:24;;;;;;;;;;;;;;;;;;4980096;28;19965;-89
2023/01/24 04:12:50;;;;;;;;;;;;;;;;;;4978816;28;19926;-91
2023/01/24 04:15:16;;;;;;;;;;;;;;;;;;4996627;28;19945;-91
2023/01/24 04:17:42;;;;;;;;;;;;;;;;;;4996168;28;20412;-91
2023/01/24 04:20:08;;;;;;;;;;;;;;;;;;4980125;28;19922;-91
2023/01/24 04:22:34;;;;;;;;;;;;;;;;;;4979806;28;20007;-91
2023/01/24 04:25:00;;;;;;;;;;;;;;;;;;4996127;28;19944;-91
2023/01/24 04:27:26;;;;;;;;;;;;;;;;;;4979853;28;20395;-91
2023/01/24 04:29:51;;;;;;;;;;;;;;;;;;4996213;28;19928;-90
2023/01/24 04:32:18;;;;;;;;;;;;;;;;;;4995906;28;19926;-90
2023/01/24 04:34:43;;;;;;;;;;;;;;;;;;4979588;28;19941;-90
2023/01/24 04:37:09;;;;;;;;;;;;;;;;;;4979694;28;19929;-91
2023/01/24 04:39:35;;;;;;;;;;;;;;;;;;4979644;28;19922;-90
2023/01/24 04:42:01;;;;;;;;;;;;;;;;;;4979448;28;19921;-90
2023/01/24 04:44:27;;;;;;;;;;;;;;;;;;4979602;28;20297;-91
2023/01/24 04:46:53;;;;;;;;;;;;;;;;;;4996045;28;19928;-91
2023/01/24 04:49:19;;;;;;;;;;;;;;;;;;4979607;28;19968;-91
2023/01/24 04:51:45;;;;;;;;;;;;;;;;;;4979658;28;19925;-90
2023/01/24 04:54:11;;;;;;;;;;;;;;;;;;4995710;28;20310;-90
2023/01/24 04:56:37;;;;;;;;;;;;;;;;;;4995621;28;19926;-90
2023/01/24 04:59:03;;;;;;;;;;;;;;;;;;4978932;28;19928;-89
2023/01/24 05:01:29;;;;;;;;;;;;;;;;;;4995758;28;19922;-90
2023/01/24 05:03:58;;;;;;;;;;;;;;;;;;4979263;28;19925;-90
2023/01/24 05:06:24;;;;;;;;;;;;;;;;;;4979082;28;20381;-90
2023/01/24 05:08:50;;;;;;;;;;;;;;;;;;4978939;28;19922;-90
2023/01/24 05:11:16;;;;;;;;;;;;;;;;;;4978720;28;19926;-90
2023/01/24 05:13:42;;;;;;;;;;;;;;;;;;4995005;28;19922;-90
2023/01/24 05:16:08;;;;;;;;;;;;;;;;;;4979003;28;19921;-90
2023/01/24 05:18:34;;;;;;;;;;;;;;;;;;4978891;28;19927;-90
2023/01/24 05:21:00;;;;;;;;;;;;;;;;;;4978504;28;19922;-90
2023/01/24 05:23:25;;;;;;;;;;;;;;;;;;4978831;28;19925;-90
2023/01/24 05:25:51;;;;;;;;;;;;;;;;;;4978778;28;20357;-90
2023/01/24 05:28:17;;;;;;;;;;;;;;;;;;4994926;28;19921;-90
2023/01/24 05:30:43;;;;;;;;;;;;;;;;;;4994872;28;19921;-90
2023/01/24 05:33:09;;;;;;;;;;;;;;;;;;4978574;28;19921;-89
2023/01/24 05:35:35;;;;;;;;;;;;;;;;;;4994742;28;19968;-90
2023/01/24 05:38:01;;;;;;;;;;;;;;;;;;4994826;28;19944;-90
2023/01/24 05:40:27;;;;;;;;;;;;;;;;;;4994848;28;20012;-90
2023/01/24 05:42:53;;;;;;;;;;;;;;;;;;4994870;28;20407;-90
2023/01/24 05:45:19;;;;;;;;;;;;;;;;;;4978475;28;19936;-90
2023/01/24 05:47:45;;;;;;;;;;;;;;;;;;4978537;28;19922;-91
2023/01/24 05:50:10;;;;;;;;;;;;;;;;;;4994912;28;20096;-91
2023/01/24 05:52:36;;;;;;;;;;;;;;;;;;4995106;28;19929;-90
2023/01/24 05:55:02;;;;;;;;;;;;;;;;;;4994713;28;20413;-90
2023/01/24 05:57:28;;;;;;;;;;;;;;;;;;4995201;28;19921;-90
2023/01/24 05:59:54;;;;;;;;;;;;;;;;;;4978611;28;19928;-91
2023/01/24 06:02:23;;;;;;;;;;;;;;;;;;4978183;28;19948;-90
2023/01/24 06:04:49;;;;;;;;;;;;;;;;;;4979179;28;20373;-91
2023/01/24 06:07:15;;;;;;;;;;;;;;;;;;4994541;28;19922;-89
2023/01/24 06:09:41;;;;;;;;;;;;;;;;;;4978313;28;19926;-90
2023/01/24 06:12:07;;;;;;;;;;;;;;;;;;4994841;28;19929;-92
2023/01/24 06:14:33;;;;;;;;;;;;;;;;;;4978768;28;19936;-91
2023/01/24 06:16:59;;;;;;;;;;;;;;;;;;4978808;28;19921;-91
2023/01/24 06:19:24;;;;;;;;;;;;;;;;;;4978591;28;19961;-91
2023/01/24 06:21:50;;;;;;;;;;;;;;;;;;4978680;28;19965;-91
2023/01/24 06:24:16;;;;;;;;;;;;;;;;;;4994892;28;19976;-91
2023/01/24 06:26:42;;;;;;;;;;;;;;;;;;4994932;28;19922;-91
2023/01/24 06:29:08;;;;;;;;;;;;;;;;;;4978396;28;19922;-90
2023/01/24 06:31:36;;;;;;;;;;;;;;;;;;4994801;28;19968;-91
2023/01/24 06:34:02;;;;;;;;;;;;;;;;;;4999980;28;19921;-90
2023/01/24 06:36:28;;;;;;;;;;;;;;;;;;4996023;28;19927;-91
2023/01/24 06:38:54;;;;;;;;;;;;;;;;;;4982067;28;19925;-92
2023/01/24 06:41:20;;;;;;;;;;;;;;;;;;4998940;28;19922;-94
2023/01/24 06:43:52;;;;;;;;;;;;;;;;;;4982701;28;19926;-91
2023/01/24 06:46:17;;;;;;;;;;;;;;;;;;4981840;28;20067;-90
2023/01/24 06:48:44;;;;;;;;;;;;;;;;;;4998872;28;19995;-94
2023/01/24 06:51:10;;;;;;;;;;;;;;;;;;4998999;28;19932;-94
2023/01/24 06:53:35;;;;;;;;;;;;;;;;;;4983209;28;20292;-95
2023/01/24 06:56:04;;;;;;;;;;;;;;;;;;4985148;28;20311;-95
2023/01/24 06:58:30;;;;;;;;;;;;;;;;;;5000846;28;19921;-94
2023/01/24 07:00:56;;;;;;;;;;;;;;;;;;4982282;28;19925;-92
2023/01/24 07:03:22;;;;;;;;;;;;;;;;;;4998472;28;19976;-92
2023/01/24 07:05:48;;;;;;;;;;;;;;;;;;4982054;28;19930;-91
2023/01/24 07:08:19;;;;;;;;;;;;;;;;;;4983235;28;19925;-91
2023/01/24 07:10:45;;;;;;;;;;;;;;;;;;4981939;28;19982;-93
2023/01/24 07:13:11;;;;;;;;;;;;;;;;;;4998053;28;20027;-91
2023/01/24 07:15:37;;;;;;;;;;;;;;;;;;4997917;28;19925;-91
2023/01/24 07:18:03;;;;;;;;;;;;;;;;;;4981602;28;20012;-89
2023/01/24 07:20:29;;;;;;;;;;;;;;;;;;4997808;28;19921;-91
2023/01/24 07:22:56;;;;;;;;;;;;;;;;;;4981284;28;19926;-92
2023/01/24 07:25:42;;;;;;;;;;;;;;;;;;4994380;28;20265;-91
2023/01/24 07:31:18;;;;;;;;;;;;;;;;;;4999077;28;19921;-93
2023/01/24 07:33:50;;;;;;;;;;;;;;;;;;4981811;28;19952;-94
2023/01/24 07:36:16;;;;;;;;;;;;;;;;;;4981410;28;19921;-91
2023/01/24 07:38:42;;;;;;;;;;;;;;;;;;4981180;28;19933;-92
2023/01/24 07:41:08;;;;;;;;;;;;;;;;;;4981580;28;19925;-93
2023/01/24 07:43:34;;;;;;;;;;;;;;;;;;4998277;28;19925;-94
2023/01/24 07:46:00;;;;;;;;;;;;;;;;;;4998221;28;19969;-91
2023/01/24 07:48:26;;;;;;;;;;;;;;;;;;4980536;28;20071;-91
2023/01/24 07:50:52;;;;;;;;;;;;;;;;;;4997914;28;19964;-91
2023/01/24 07:53:18;;;;;;;;;;;;;;;;;;4981472;28;19921;-90
2023/01/24 07:55:44;;;;;;;;;;;;;;;;;;4980841;28;19928;-92
2023/01/24 07:58:10;;;;;;;;;;;;;;;;;;4998378;28;20039;-94
2023/01/24 08:00:36;;;;;;;;;;;;;;;;;;4981072;28;19968;-93
2023/01/24 08:03:01;;;;;;;;;;;;;;;;;;4997380;28;19979;-91
2023/01/24 08:05:30;;;;;;;;;;;;;;;;;;4981316;28;20032;-95
2023/01/24 08:07:58;;;;;;;;;;;;;;;;;;4998382;28;19988;-91
2023/01/24 08:10:25;;;;;;;;;;;;;;;;;;4981000;28;19922;-92
2023/01/24 08:12:51;;;;;;;;;;;;;;;;;;4980931;28;20054;-93
2023/01/24 08:15:17;;;;;;;;;;;;;;;;;;4981182;28;19926;-94
2023/01/24 08:17:43;;;;;;;;;;;;;;;;;;4997219;28;20460;-92
2023/01/24 08:20:09;;;;;;;;;;;;;;;;;;4980973;28;19976;-94
2023/01/24 08:22:35;;;;;;;;;;;;;;;;;;4980827;28;19929;-92
2023/01/24 08:25:01;;;;;;;;;;;;;;;;;;4996429;28;19921;-92
2023/01/24 08:27:26;;;;;;;;;;;;;;;;;;4998783;28;19967;-94
2023/01/24 08:29:52;;;;;;;;;;;;;;;;;;4982421;28;20361;-92
2023/01/24 08:32:27;;;;;;;;;;;;;;;;;;4997945;28;20004;-96
2023/01/24 08:34:53;;;;;;;;;;;;;;;;;;4996290;28;20020;-92
2023/01/24 08:37:19;;;;;;;;;;;;;;;;;;4992520;28;19972;-91
2023/01/24 08:39:45;;;;;;;;;;;;;;;;;;4977274;28;19973;-93
2023/01/24 08:42:11;;;;;;;;;;;;;;;;;;4972913;28;20273;-93
2023/01/24 08:44:37;;;;;;;;;;;;;;;;;;4980865;28;19940;-92
2023/01/24 08:47:05;;;;;;;;;;;;;;;;;;4996657;28;19922;-93
2023/01/24 08:49:34;;;;;;;;;;;;;;;;;;4997415;28;20015;-95
2023/01/24 08:52:00;;;;;;;;;;;;;;;;;;4980568;28;20011;-94
2023/01/24 08:54:28;;;;;;;;;;;;;;;;;;4980180;28;19963;-93
2023/01/24 08:56:54;;;;;;;;;;;;;;;;;;4980208;28;20274;-93
2023/01/24 08:59:22;;;;;;;;;;;;;;;;;;4995438;28;22667;-93
2023/01/24 09:01:48;;;;;;;;;;;;;;;;;;4980122;28;20356;-93
2023/01/24 09:04:14;;;;;;;;;;;;;;;;;;4980204;28;19929;-93
2023/01/24 09:06:40;;;;;;;;;;;;;;;;;;4995948;28;19922;-92
2023/01/24 09:09:12;;;;;;;;;;;;;;;;;;4980449;28;20407;-94
2023/01/24 09:11:45;;;;;;;;;;;;;;;;;;4988962;28;19930;-96
2023/01/24 09:14:11;;;;;;;;;;;;;;;;;;4960700;28;19976;-92
2023/01/24 09:16:37;;;;;;;;;;;;;;;;;;4959901;28;19922;-92
2023/01/24 09:19:03;;;;;;;;;;;;;;;;;;4976276;28;20041;-93
2023/01/24 09:21:29;;;;;;;;;;;;;;;;;;4960314;28;19957;-91
2023/01/24 09:23:55;;;;;;;;;;;;;;;;;;4976085;28;20399;-92
2023/01/24 09:26:21;;;;;;;;;;;;;;;;;;4959813;28;19922;-92
2023/01/24 09:28:47;;;;;;;;;;;;;;;;;;4959701;28;19953;-91
2023/01/24 09:31:13;;;;;;;;;;;;;;;;;;4960065;28;19983;-90
2023/01/24 09:33:39;;;;;;;;;;;;;;;;;;4960325;28;19977;-91
2023/01/24 09:36:04;;;;;;;;;;;;;;;;;;4976110;28;19926;-91
2023/01/24 09:38:30;;;;;;;;;;;;;;;;;;4975890;28;19965;-92
2023/01/24 09:40:56;;;;;;;;;;;;;;;;;;4960229;28;19954;-92
2023/01/24 09:43:22;;;;;;;;;;;;;;;;;;4976073;28;19949;-91
2023/01/24 09:45:48;;;;;;;;;;;;;;;;;;4963452;28;20350;-92
2023/01/24 09:48:15;;;;;;;;;;;;;;;;;;4940807;28;19922;-92
2023/01/24 09:50:41;;;;;;;;;;;;;;;;;;4940723;28;19923;-91
2023/01/24 09:53:07;;;;;;;;;;;;;;;;;;4941255;28;20212;-93
2023/01/24 09:55:33;;;;;;;;;;;;;;;;;;4940898;28;19932;-92
2023/01/24 09:57:59;;;;;;;;;;;;;;;;;;4956952;28;20005;-93
2023/01/24 10:00:25;;;;;;;;;;;;;;;;;;4941468;28;19973;-93
2023/01/24 10:02:51;;;;;;;;;;;;;;;;;;4941259;28;19926;-93
2023/01/24 10:05:17;;;;;;;;;;;;;;;;;;4942678;28;19922;-93
2023/01/24 10:07:43;;;;;;;;;;;;;;;;;;4955295;28;19929;-94
2023/01/24 10:10:09;;;;;;;;;;;;;;;;;;4957585;28;19934;-95
2023/01/24 10:12:35;;;;;;;;;;;;;;;;;;4958382;28;19944;-92
2023/01/24 10:15:01;;;;;;;;;;;;;;;;;;4963875;28;20000;-94
2023/01/24 10:17:26;;;;;;;;;;;;;;;;;;4963348;28;19921;-91
2023/01/24 10:19:52;;;;;;;;;;;;;;;;;;4963211;28;19999;-92
2023/01/24 10:22:18;;;;;;;;;;;;;;;;;;4979393;28;19922;-92
2023/01/24 10:24:44;;;;;;;;;;;;;;;;;;4963716;28;19928;-91
2023/01/24 10:27:10;;;;;;;;;;;;;;;;;;4980024;28;19921;-92
2023/01/24 10:29:36;;;;;;;;;;;;;;;;;;4963523;28;19928;-95
2023/01/24 10:32:02;;;;;;;;;;;;;;;;;;4980005;28;20037;-93
2023/01/24 10:34:28;;;;;;;;;;;;;;;;;;4979367;28;20342;-94
2023/01/24 10:36:54;;;;;;;;;;;;;;;;;;4963286;28;20215;-95
2023/01/24 10:39:20;;;;;;;;;;;;;;;;;;4979666;28;20353;-94
2023/01/24 10:41:53;;;;;;;;;;;;;;;;;;4963634;28;20277;-94
2023/01/24 10:44:19;;;;;;;;;;;;;;;;;;4979276;28;19929;-94
2023/01/24 10:46:45;;;;;;;;;;;;;;;;;;4963758;28;20013;-93
2023/01/24 10:49:11;;;;;;;;;;;;;;;;;;4963585;28;19930;-93
2023/01/24 10:51:37;;;;;;;;;;;;;;;;;;4963087;28;19932;-93
2023/01/24 10:54:03;;;;;;;;;;;;;;;;;;4963650;28;20258;-94
2023/01/24 10:56:30;;;;;;;;;;;;;;;;;;4965304;28;19921;-95
2023/01/24 10:58:55;;;;;;;;;;;;;;;;;;4966340;28;19930;-95
2023/01/24 11:01:21;;;;;;;;;;;;;;;;;;4964486;28;19921;-95
2023/01/24 11:03:47;;;;;;;;;;;;;;;;;;4979521;28;19940;-94
2023/01/24 11:06:13;;;;;;;;;;;;;;;;;;4980322;28;19972;-93
2023/01/24 11:08:39;;;;;;;;;;;;;;;;;;4967151;28;19929;-93
2023/01/24 11:11:06;;;;;;;;;;;;;;;;;;4983423;28;19922;-94
2023/01/24 11:13:32;;;;;;;;;;;;;;;;;;4982106;28;19922;-95
2023/01/24 11:16:00;;;;;;;;;;;;;;;;;;4965975;28;20377;-94
2023/01/24 11:18:27;;;;;;;;;;;;;;;;;;4966990;28;19922;-94
2023/01/24 11:20:55;;;;;;;;;;;;;;;;;;4978063;28;20144;-94
2023/01/24 11:23:23;;;;;;;;;;;;;;;;;;4997512;28;19925;-91
2023/01/24 11:25:49;;;;;;;;;;;;;;;;;;4981979;28;19983;-93
2023/01/24 11:28:15;;;;;;;;;;;;;;;;;;4982948;28;19922;-95
2023/01/24 11:30:41;;;;;;;;;;;;;;;;;;4978722;28;20090;-94
2023/01/24 11:33:07;;;;;;;;;;;;;;;;;;4979423;28;19969;-92
2023/01/24 11:35:33;;;;;;;;;;;;;;;;;;4961949;28;19918;-92
2023/01/24 11:37:59;;;;;;;;;;;;;;;;;;4978132;28;19975;-93
2023/01/24 11:40:25;;;;;;;;;;;;;;;;;;4978441;28;19921;-92
2023/01/24 11:42:51;;;;;;;;;;;;;;;;;;4978387;28;19925;-95
2023/01/24 11:45:17;;;;;;;;;;;;;;;;;;4978314;28;19925;-93
2023/01/24 11:47:43;;;;;;;;;;;;;;;;;;4961670;28;19922;-94
2023/01/24 11:50:08;;;;;;;;;;;;;;;;;;4962434;28;19922;-93
2023/01/24 11:52:34;;;;;;;;;;;;;;;;;;4961970;28;19921;-92
2023/01/24 11:55:00;;;;;;;;;;;;;;;;;;4962952;28;20270;-92
2023/01/24 11:57:26;;;;;;;;;;;;;;;;;;4977497;28;19922;-92
2023/01/24 11:59:54;;;;;;;;;;;;;;;;;;4977433;28;20377;-93
2023/01/24 12:02:20;;;;;;;;;;;;;;;;;;4961912;28;19929;-94
2023/01/24 12:04:46;;;;;;;;;;;;;;;;;;4961864;28;20064;-93
2023/01/24 12:07:12;;;;;;;;;;;;;;;;;;4978205;28;20064;-94
2023/01/24 12:09:38;;;;;;;;;;;;;;;;;;4977326;28;19933;-93
2023/01/24 12:12:03;;;;;;;;;;;;;;;;;;4976895;28;19925;-93
2023/01/24 12:14:29;;;;;;;;;;;;;;;;;;4961458;28;19921;-93
2023/01/24 12:16:55;;;;;;;;;;;;;;;;;;4961680;28;19972;-94
2023/01/24 12:19:22;;;;;;;;;;;;;;;;;;4977494;28;19925;-94
2023/01/24 12:21:48;;;;;;;;;;;;;;;;;;4961900;28;20008;-92
2023/01/24 12:24:14;;;;;;;;;;;;;;;;;;4960977;28;20000;-92
2023/01/24 12:26:40;;;;;;;;;;;;;;;;;;4960590;28;19926;-92
2023/01/24 12:29:06;;;;;;;;;;;;;;;;;;4961313;28;20352;-90
2023/01/24 12:31:32;;;;;;;;;;;;;;;;;;4976779;28;20429;-91
2023/01/24 12:33:58;;;;;;;;;;;;;;;;;;4959849;28;19944;-92
2023/01/24 12:36:25;;;;;;;;;;;;;;;;;;4960433;28;19972;-92
2023/01/24 12:38:51;;;;;;;;;;;;;;;;;;4973037;28;19928;-91
2023/01/24 12:41:17;;;;;;;;;;;;;;;;;;4996694;28;19923;-92
2023/01/24 12:43:49;;;;;;;;;;;;;;;;;;4981671;28;19925;-95
2023/01/24 12:46:15;;;;;;;;;;;;;;;;;;4980189;28;20021;-93
2023/01/24 12:48:41;;;;;;;;;;;;;;;;;;4980471;28;19928;-93
2023/01/24 12:51:07;;;;;;;;;;;;;;;;;;4980070;28;19926;-93
2023/01/24 12:53:33;;;;;;;;;;;;;;;;;;4980201;28;19922;-92
2023/01/24 12:55:59;;;;;;;;;;;;;;;;;;4996381;28;19930;-92
2023/01/24 12:58:25;;;;;;;;;;;;;;;;;;4980199;28;19980;-92
2023/01/24 13:00:51;;;;;;;;;;;;;;;;;;4980032;28;19941;-93
2023/01/24 13:03:17;;;;;;;;;;;;;;;;;;4996198;28;20023;-94
2023/01/24 13:05:43;;;;;;;;;;;;;;;;;;4996506;28;19925;-93
2023/01/24 13:08:09;;;;;;;;;;;;;;;;;;4981681;28;19928;-93
2023/01/24 13:10:35;;;;;;;;;;;;;;;;;;4980346;28;19941;-93
2023/01/24 13:13:01;;;;;;;;;;;;;;;;;;4996106;28;19933;-93
2023/01/24 13:15:27;;;;;;;;;;;;;;;;;;4980177;28;20394;-93
2023/01/24 13:17:55;;;;;;;;;;;;;;;;;;4996190;28;19928;-95
2023/01/24 13:20:23;;;;;;;;;;;;;;;;;;4979934;28;19928;-93
2023/01/24 13:22:52;;;;;;;;;;;;;;;;;;4980508;28;19926;-93
2023/01/24 13:25:18;;;;;;;;;;;;;;;;;;4980325;28;19944;-93
2023/01/24 13:27:47;;;;;;;;;;;;;;;;;;4995610;28;20012;-94
2023/01/24 13:30:13;;;;;;;;;;;;;;;;;;4979797;28;20319;-93
2023/01/24 13:32:39;;;;;;;;;;;;;;;;;;4996077;28;19944;-92
2023/01/24 13:35:05;;;;;;;;;;;;;;;;;;4995557;28;19921;-91
2023/01/24 13:37:31;;;;;;;;;;;;;;;;;;4978718;28;19928;-93
2023/01/24 13:40:04;;;;;;;;;;;;;;;;;;4979364;28;20016;-94
2023/01/24 13:42:30;;;;;;;;;;;;;;;;;;4979416;28;20152;-93
2023/01/24 13:44:56;;;;;;;;;;;;;;;;;;4980467;28;20093;-91
2023/01/24 13:47:22;;;;;;;;;;;;;;;;;;4985207;28;20011;-92
2023/01/24 13:49:48;;;;;;;;;;;;;;;;;;4984836;28;20372;-90
2023/01/24 13:52:14;;;;;;;;;;;;;;;;;;4984821;28;19936;-90
2023/01/24 13:54:40;;;;;;;;;;;;;;;;;;4985098;28;20438;-95
2023/01/24 13:57:09;;;;;;;;;;;;;;;;;;4986427;28;19948;-95
2023/01/24 13:59:34;;;;;;;;;;;;;;;;;;4985810;28;19921;-93
2023/01/24 14:02:00;;;;;;;;;;;;;;;;;;4985742;28;19922;-92
2023/01/24 14:04:29;;;;;;;;;;;;;;;;;;5001926;28;19932;-93
2023/01/24 14:06:57;;;;;;;;;;;;;;;;;;5001967;28;20233;-92
2023/01/24 14:09:23;;;;;;;;;;;;;;;;;;4984902;28;20021;-92
2023/01/24 14:11:48;;;;;;;;;;;;;;;;;;5001368;28;19972;-94
2023/01/24 14:14:17;;;;;;;;;;;;;;;;;;4984366;28;20293;-94
2023/01/24 14:16:43;;;;;;;;;;;;;;;;;;4966129;28;19984;-95
2023/01/24 14:19:12;;;;;;;;;;;;;;;;;;4966702;28;19980;-95
2023/01/24 14:21:38;;;;;;;;;;;;;;;;;;4982912;28;19975;-94
2023/01/24 14:24:06;;;;;;;;;;;;;;;;;;4966415;28;20004;-93
2023/01/24 14:26:35;;;;;;;;;;;;;;;;;;4982280;28;19976;-94
2023/01/24 14:29:01;;;;;;;;;;;;;;;;;;4982079;28;20024;-95
2023/01/24 14:31:27;;;;;;;;;;;;;;;;;;4966423;28;20049;-93
2023/01/24 14:33:53;;;;;;;;;;;;;;;;;;4988150;28;19928;-93
2023/01/24 14:36:19;;;;;;;;;;;;;;;;;;4985448;28;20012;-93
2023/01/24 14:38:44;;;;;;;;;;;;;;;;;;5001652;28;19928;-93
2023/01/24 14:41:10;;;;;;;;;;;;;;;;;;4985504;28;19928;-91
2023/01/24 14:43:37;;;;;;;;;;;;;;;;;;5001545;28;19981;-93
2023/01/24 14:46:03;;;;;;;;;;;;;;;;;;4984985;28;20004;-95
2023/01/24 14:48:28;;;;;;;;;;;;;;;;;;5001023;28;19952;-93
2023/01/24 14:50:54;;;;;;;;;;;;;;;;;;5001105;28;19921;-94
2023/01/24 14:53:20;;;;;;;;;;;;;;;;;;5002083;28;20345;-93
2023/01/24 14:55:49;;;;;;;;;;;;;;;;;;4986090;28;19921;-93
2023/01/24 14:58:15;;;;;;;;;;;;;;;;;;4982022;28;20377;-93
2023/01/24 15:00:54;;;;;;;;;;;;;;;;;;4985081;28;19929;-95
2023/01/24 15:03:20;;;;;;;;;;;;;;;;;;4987613;28;19925;-95
2023/01/24 15:05:46;;;;;;;;;;;;;;;;;;4999446;28;19932;-96
2023/01/24 15:08:12;;;;;;;;;;;;;;;;;;4983275;28;19965;-95
2023/01/24 15:10:38;;;;;;;;;;;;;;;;;;4998860;28;19921;-95
2023/01/24 15:13:04;;;;;;;;;;;;;;;;;;4998004;28;19947;-92
2023/01/24 15:15:30;;;;;;;;;;;;;;;;;;4982576;28;20364;-95
2023/01/24 15:17:56;;;;;;;;;;;;;;;;;;4982466;28;19936;-94
2023/01/24 15:20:22;;;;;;;;;;;;;;;;;;4982544;28;20285;-94
2023/01/24 15:22:49;;;;;;;;;;;;;;;;;;4982446;28;20035;-93
2023/01/24 15:25:15;;;;;;;;;;;;;;;;;;4981929;28;19922;-93
2023/01/24 15:27:41;;;;;;;;;;;;;;;;;;4981647;28;20092;-92
2023/01/24 15:30:07;;;;;;;;;;;;;;;;;;4997567;28;19922;-92
2023/01/24 15:32:33;;;;;;;;;;;;;;;;;;4981625;28;20377;-92
2023/01/24 15:34:59;;;;;;;;;;;;;;;;;;4997852;28;19921;-93
2023/01/24 15:37:25;;;;;;;;;;;;;;;;;;4997735;28;19922;-93
2023/01/24 15:39:51;;;;;;;;;;;;;;;;;;4981208;28;20004;-92
2023/01/24 15:45:02;;;;;;;;;;;;;;;;;;4997419;28;19930;-92
2023/01/24 15:47:48;;;;;;;;;;;;;;;;;;4981109;28;19930;-92
2023/01/24 15:53:06;;;;;;;;;;;;;;;;;;4997608;28;19921;-93
2023/01/24 15:55:31;;;;;;;;;;;;;;;;;;4997578;28;20430;-92
2023/01/24 15:57:57;;;;;;;;;;;;;;;;;;4997093;28;19925;-93
2023/01/24 16:00:23;;;;;;;;;;;;;;;;;;4981225;28;20238;-93
2023/01/24 16:02:49;;;;;;;;;;;;;;;;;;4997024;28;19944;-93
2023/01/24 16:05:15;;;;;;;;;;;;;;;;;;4981131;28;20364;-93
2023/01/24 16:07:41;;;;;;;;;;;;;;;;;;4996932;28;19927;-94
2023/01/24 16:10:07;;;;;;;;;;;;;;;;;;4996140;28;20041;-92
2023/01/24 16:12:33;;;;;;;;;;;;;;;;;;4967718;28;19972;-93
2023/01/24 16:15:00;;;;;;;;;;;;;;;;;;4976952;28;19928;-92
2023/01/24 16:17:26;;;;;;;;;;;;;;;;;;4960102;28;20297;-92
2023/01/24 16:28:12;;;;;;;;;;;;;;;;;;5658159;23;19936;-95
2023/01/24 16:30:49;;;;;;;;;;;;;;;;;;5004162;28;20052;-92
2023/01/24 16:33:15;;;;;;;;;;;;;;;;;;5000669;28;20033;-93
2023/01/24 17:06:05;;;;;;;;;;;;;;;;;;4987974;28;19944;-92
2023/01/24 17:08:31;;;;;;;;;;;;;;;;;;4983548;28;19933;-94
2023/01/24 17:11:19;;;;;;;;;;;;;;;;;;4984516;28;19921;-92
2023/01/24 17:16:52;;;;;;;;;;;;;;;;;;5001423;28;20011;-96
2023/01/24 17:19:21;;;;;;;;;;;;;;;;;;4979774;28;19921;-94
2023/01/24 17:21:49;;;;;;;;;;;;;;;;;;4995484;28;19921;-94
2023/01/24 17:27:49;;;;;;;;;;;;;;;;;;;;;
2023/01/24 17:30:17;;;;;;;;;;;;;;;;;;4918790;29;20351;-92
2023/01/24 17:32:43;;;;;;;;;;;;;;;;;;4950340;28;19976;-95
2023/01/24 17:35:12;;;;;;;;;;;;;;;;;;4961608;28;19922;-93
2023/01/24 17:38:02;;;;;;;;;;;;;;;;;;4978977;28;19926;-95
2023/01/24 17:40:24;;;;;;;;;;;;;;;;;;4992029;28;20252;-93
2023/01/24 17:43:11;;;;;;;;;;;;;;;;;;4962330;28;20019;-95
2023/01/24 17:45:36;;;;;;;;;;;;;;;;;;4993876;28;20274;-93
2023/01/24 17:48:05;;;;;;;;;;;;;;;;;;4978204;28;19933;-95
2023/01/24 17:50:41;;;;;;;;;;;;;;;;;;;;;
2023/01/24 17:53:09;;;;;;;;;;;;;;;;;;4994756;28;20400;-95
2023/01/24 17:55:44;;;;;;;;;;;;;;;;;;4978807;28;19976;-96
2023/01/24 17:58:10;;;;;;;;;;;;;;;;;;4978812;28;19976;-94
2023/01/24 18:00:46;;;;;;;;;;;;;;;;;;;;;
2023/01/24 18:03:12;;;;;;;;;;;;;;;;;;4995319;28;20009;-93
2023/01/24 18:05:41;;;;;;;;;;;;;;;;;;4978747;28;20056;-93
2023/01/24 18:08:07;;;;;;;;;;;;;;;;;;4994768;28;19929;-92
2023/01/24 18:10:32;;;;;;;;;;;;;;;;;;4978940;28;20277;-91
2023/01/24 18:12:58;;;;;;;;;;;;;;;;;;4995044;28;19922;-93